createdAt,value
2023-08-07T00:00:29.226Z,3.53
2023-08-07T00:02:57.152Z,3.57
2023-08-07T00:05:24.529Z,2.20
2023-08-07T00:07:51.896Z,2.67
2023-08-07T00:10:19.809Z,4.50
2023-08-07T00:12:47.611Z,2.30
2023-08-07T00:15:15.378Z,6.30
2023-08-07T00:17:42.680Z,18.53
2023-08-07T00:20:10.156Z,2.90
2023-08-07T00:22:38.494Z,3.00
2023-08-07T00:25:06.522Z,2.00
2023-08-07T00:27:33.930Z,2.60
2023-08-07T00:30:01.173Z,1.93
2023-08-07T00:32:28.444Z,2.50
2023-08-07T00:34:56.014Z,4.50
2023-08-07T00:37:23.960Z,2.33
2023-08-07T00:39:51.329Z,2.07
2023-08-07T00:42:18.847Z,2.43
2023-08-07T00:44:46.234Z,2.40
2023-08-07T00:47:13.585Z,2.43
2023-08-07T00:49:41.724Z,3.10
2023-08-07T00:52:09.663Z,2.63
2023-08-07T00:54:37.053Z,5.67
2023-08-07T00:57:12.220Z,4.00
2023-08-07T00:59:40.480Z,4.47
2023-08-07T01:02:07.848Z,2.70
2023-08-07T01:04:35.127Z,2.70
2023-08-07T01:07:03.767Z,5.10
2023-08-07T01:09:31.206Z,3.50
2023-08-07T01:12:17.462Z,3.40
2023-08-07T01:15:00.225Z,3.60
2023-08-07T01:17:28.679Z,4.03
2023-08-07T01:19:57.557Z,5.93
2023-08-07T01:22:25.205Z,4.20
2023-08-07T01:24:53.101Z,2.30
2023-08-07T01:27:20.427Z,3.53
2023-08-07T01:30:01.203Z,2.33
2023-08-07T01:32:52.132Z,2.87
2023-08-07T01:35:22.343Z,8.13
2023-08-07T01:37:52.632Z,5.13
2023-08-07T01:40:21.967Z,2.50
2023-08-07T01:42:50.475Z,3.53
2023-08-07T01:45:24.989Z,5.87
2023-08-07T01:47:54.372Z,2.60
2023-08-07T01:50:23.658Z,3.03
2023-08-07T01:52:51.214Z,3.07
2023-08-07T01:55:19.926Z,3.63
2023-08-07T01:57:54.447Z,3.40
2023-08-07T02:00:23.027Z,2.50
2023-08-07T02:02:50.408Z,6.37
2023-08-07T02:05:18.152Z,6.70
2023-08-07T02:07:47.796Z,5.43
2023-08-07T02:10:15.009Z,3.17
2023-08-07T02:12:43.390Z,5.00
2023-08-07T02:15:11.042Z,6.60
2023-08-07T02:17:40.229Z,6.33
2023-08-07T02:20:08.726Z,6.90
2023-08-07T02:22:36.432Z,7.30
2023-08-07T02:25:04.153Z,4.10
2023-08-07T02:27:31.371Z,4.53
2023-08-07T02:29:58.783Z,4.53
2023-08-07T02:32:26.171Z,3.50
2023-08-07T02:34:55.370Z,3.03
2023-08-07T02:37:24.990Z,5.60
2023-08-07T02:39:52.426Z,3.27
2023-08-07T02:42:19.814Z,4.03
2023-08-07T02:44:48.075Z,3.90
2023-08-07T02:47:15.457Z,5.53
2023-08-07T02:49:43.556Z,8.53
2023-08-07T02:52:11.146Z,4.60
2023-08-07T02:54:38.731Z,6.50
2023-08-07T02:57:06.970Z,4.23
2023-08-07T02:59:34.341Z,3.13
2023-08-07T03:02:01.976Z,4.63
2023-08-07T03:04:29.244Z,4.13
2023-08-07T03:06:58.363Z,5.60
2023-08-07T03:09:26.165Z,3.83
2023-08-07T03:11:53.527Z,6.17
2023-08-07T03:14:21.129Z,3.40
2023-08-07T03:16:48.954Z,4.80
2023-08-07T03:19:16.677Z,5.50
2023-08-07T03:21:45.673Z,3.53
2023-08-07T03:24:13.211Z,5.23
2023-08-07T03:26:40.893Z,5.50
2023-08-07T03:29:08.531Z,3.97
2023-08-07T03:31:37.722Z,5.00
2023-08-07T03:34:05.543Z,6.90
2023-08-07T03:36:33.013Z,5.33
2023-08-07T03:39:00.348Z,6.97
2023-08-07T03:41:29.131Z,14.40
2023-08-07T03:43:56.996Z,8.33
2023-08-07T03:46:24.831Z,5.03
2023-08-07T03:48:53.555Z,3.97
2023-08-07T03:51:24.626Z,7.90
2023-08-07T03:53:55.241Z,9.73
2023-08-07T03:56:23.343Z,5.87
2023-08-07T03:58:51.178Z,6.27
2023-08-07T04:01:19.667Z,7.60
2023-08-07T04:03:49.664Z,5.73
2023-08-07T04:06:17.567Z,4.60
2023-08-07T04:08:47.742Z,8.10
2023-08-07T04:11:15.205Z,7.83
2023-08-07T04:13:43.780Z,6.20
2023-08-07T04:16:11.514Z,4.60
2023-08-07T04:18:39.209Z,11.77
2023-08-07T04:21:07.047Z,3.83
2023-08-07T04:23:34.429Z,7.10
2023-08-07T04:26:01.803Z,6.10
2023-08-07T04:28:30.841Z,8.40
2023-08-07T04:30:58.569Z,6.93
2023-08-07T04:33:25.998Z,5.00
2023-08-07T04:35:53.781Z,4.00
2023-08-07T04:38:21.319Z,6.73
2023-08-07T04:40:50.110Z,6.63
2023-08-07T04:43:18.774Z,4.03
2023-08-07T04:45:47.006Z,5.40
2023-08-07T04:48:17.376Z,4.90
2023-08-07T04:50:45.102Z,6.27
2023-08-07T04:53:12.520Z,5.30
2023-08-07T04:55:40.119Z,7.50
2023-08-07T04:58:07.827Z,4.20
2023-08-07T05:00:35.916Z,12.70
2023-08-07T05:03:03.824Z,4.63
2023-08-07T05:05:31.122Z,5.07
2023-08-07T05:07:59.858Z,8.70
2023-08-07T05:10:27.331Z,6.40
2023-08-07T05:12:57.271Z,3.97
2023-08-07T05:15:28.237Z,6.43
2023-08-07T05:17:55.777Z,5.70
2023-08-07T05:20:23.215Z,5.60
2023-08-07T05:22:51.249Z,4.83
2023-08-07T05:25:19.368Z,10.23
2023-08-07T05:27:47.944Z,7.97
2023-08-07T05:30:16.010Z,5.20
2023-08-07T05:32:43.821Z,8.00
2023-08-07T05:35:12.288Z,6.00
2023-08-07T05:37:39.767Z,4.57
2023-08-07T05:40:07.728Z,3.90
2023-08-07T05:42:36.529Z,8.90
2023-08-07T05:45:04.803Z,5.77
2023-08-07T05:47:34.040Z,5.13
2023-08-07T05:50:01.832Z,5.30
2023-08-07T05:52:30.590Z,5.63
2023-08-07T05:54:59.899Z,6.10
2023-08-07T05:57:28.331Z,9.50
2023-08-07T05:59:55.736Z,6.67
2023-08-07T06:02:23.004Z,5.67
2023-08-07T06:04:50.248Z,4.80
2023-08-07T06:07:17.795Z,6.70
2023-08-07T06:09:46.176Z,4.63
2023-08-07T06:12:14.900Z,6.30
2023-08-07T06:14:42.108Z,6.10
2023-08-07T06:17:09.779Z,5.70
2023-08-07T06:19:38.187Z,4.63
2023-08-07T06:22:05.968Z,6.70
2023-08-07T06:24:33.212Z,5.07
2023-08-07T06:27:00.978Z,7.07
2023-08-07T06:29:29.862Z,4.80
2023-08-07T06:31:58.232Z,6.17
2023-08-07T06:34:26.100Z,4.47
2023-08-07T06:36:53.565Z,6.33
2023-08-07T06:39:21.103Z,5.40
2023-08-07T06:41:48.983Z,4.93
2023-08-07T06:44:20.881Z,4.53
2023-08-07T06:46:49.241Z,4.27
2023-08-07T06:49:17.448Z,5.03
2023-08-07T06:51:44.872Z,4.00
2023-08-07T06:54:12.111Z,3.30
2023-08-07T06:56:43.138Z,4.63
2023-08-07T06:59:10.907Z,3.50
2023-08-07T07:01:39.892Z,4.53
2023-08-07T07:04:07.127Z,3.63
2023-08-07T07:06:35.224Z,3.47
2023-08-07T07:09:02.522Z,3.90
2023-08-07T07:11:29.731Z,3.37
2023-08-07T07:13:57.124Z,5.13
2023-08-07T07:16:24.735Z,3.30
2023-08-07T07:18:52.649Z,6.23
2023-08-07T07:21:21.294Z,3.10
2023-08-07T07:23:48.526Z,4.80
2023-08-07T07:26:15.766Z,4.20
2023-08-07T07:28:43.015Z,4.63
2023-08-07T07:31:12.532Z,7.27
2023-08-07T07:33:41.647Z,5.47
2023-08-07T07:36:09.112Z,4.30
2023-08-07T07:38:37.500Z,4.73
2023-08-07T07:41:04.792Z,3.60
2023-08-07T07:43:33.132Z,5.53
2023-08-07T07:46:00.359Z,4.60
2023-08-07T07:48:27.710Z,4.57
2023-08-07T07:51:01.584Z,8.40
2023-08-07T07:53:28.928Z,5.43
2023-08-07T07:55:56.232Z,6.77
2023-08-07T07:58:23.577Z,7.53
2023-08-07T08:00:53.406Z,7.10
2023-08-07T08:03:21.563Z,5.13
2023-08-07T08:05:52.354Z,4.43
2023-08-07T08:08:19.641Z,4.20
2023-08-07T08:10:48.646Z,4.33
2023-08-07T08:13:17.141Z,5.67
2023-08-07T08:15:45.034Z,6.17
2023-08-07T08:18:12.637Z,6.47
2023-08-07T08:20:40.223Z,7.27
2023-08-07T08:23:07.449Z,7.80
2023-08-07T08:25:35.003Z,4.37
2023-08-07T08:28:02.202Z,9.40
2023-08-07T08:30:29.938Z,3.60
2023-08-07T08:32:57.604Z,6.87
2023-08-07T08:35:24.894Z,7.97
2023-08-07T08:37:52.177Z,7.73
2023-08-07T08:40:20.270Z,4.07
2023-08-07T08:42:47.604Z,5.20
2023-08-07T08:45:15.798Z,3.77
2023-08-07T08:47:44.656Z,5.27
2023-08-07T08:50:15.793Z,4.13
2023-08-07T08:52:45.552Z,8.53
2023-08-07T08:55:13.806Z,5.67
2023-08-07T08:57:41.424Z,5.03
2023-08-07T09:00:16.801Z,4.90
2023-08-07T09:02:45.041Z,5.77
2023-08-07T09:05:12.346Z,5.47
2023-08-07T09:07:39.959Z,4.53
2023-08-07T09:10:08.531Z,5.50
2023-08-07T09:12:35.809Z,3.50
2023-08-07T09:15:05.447Z,5.83
2023-08-07T09:17:35.658Z,4.70
2023-08-07T09:20:05.178Z,4.03
2023-08-07T09:22:33.081Z,6.00
2023-08-07T09:25:02.064Z,5.40
2023-08-07T09:27:29.430Z,4.13
2023-08-07T09:29:57.539Z,4.73
2023-08-07T09:32:25.749Z,6.23
2023-08-07T09:34:53.223Z,5.87
2023-08-07T09:37:20.471Z,4.90
2023-08-07T09:39:48.233Z,4.17
2023-08-07T09:42:18.759Z,6.17
2023-08-07T09:44:49.953Z,4.60
2023-08-07T09:47:18.903Z,4.60
2023-08-07T09:49:47.611Z,5.70
2023-08-07T09:52:16.571Z,3.20
2023-08-07T09:54:45.158Z,4.30
2023-08-07T09:57:12.724Z,15.43
2023-08-07T09:59:40.045Z,11.90
2023-08-07T10:02:07.479Z,3.63
2023-08-07T10:04:34.848Z,4.30
2023-08-07T10:07:03.237Z,7.70
2023-08-07T10:09:32.208Z,5.23
2023-08-07T10:12:00.477Z,6.47
2023-08-07T10:14:30.466Z,5.33
2023-08-07T10:16:58.013Z,3.80
2023-08-07T10:19:26.671Z,3.83
2023-08-07T10:21:54.954Z,4.03
2023-08-07T10:24:23.376Z,2.50
2023-08-07T10:26:52.319Z,4.53
2023-08-07T10:29:21.207Z,5.73
2023-08-07T10:31:49.906Z,5.43
2023-08-07T10:34:17.299Z,2.87
2023-08-07T10:36:44.541Z,3.10
2023-08-07T10:39:30.535Z,3.57
2023-08-07T10:42:16.484Z,3.03
2023-08-07T10:44:51.083Z,4.73
2023-08-07T10:47:34.052Z,4.30
2023-08-07T10:50:01.338Z,4.00
2023-08-07T10:52:29.578Z,4.40
2023-08-07T10:54:57.244Z,5.70
2023-08-07T10:57:24.615Z,3.20
2023-08-07T10:59:52.792Z,7.83
2023-08-07T11:02:27.059Z,3.33
2023-08-07T11:04:57.350Z,3.57
2023-08-07T11:07:25.148Z,3.17
2023-08-07T11:09:52.640Z,3.17
2023-08-07T11:12:20.569Z,3.07
2023-08-07T11:14:47.837Z,3.43
2023-08-07T11:17:15.193Z,3.53
2023-08-07T11:19:42.686Z,4.70
2023-08-07T11:22:11.012Z,3.70
2023-08-07T11:24:39.280Z,3.50
2023-08-07T11:27:06.596Z,4.97
2023-08-07T11:29:34.644Z,4.87
2023-08-07T11:32:01.938Z,7.20
2023-08-07T11:34:29.165Z,7.53
2023-08-07T11:36:56.745Z,10.30
2023-08-07T11:39:25.543Z,5.77
2023-08-07T11:41:56.307Z,3.83
2023-08-07T11:44:24.820Z,3.77
2023-08-07T11:46:52.644Z,6.40
2023-08-07T11:49:20.338Z,10.40
2023-08-07T11:51:50.208Z,5.33
2023-08-07T11:54:17.963Z,3.93
2023-08-07T11:56:45.371Z,4.83
2023-08-07T11:59:12.655Z,6.10
2023-08-07T12:01:41.452Z,4.23
2023-08-07T12:04:09.246Z,3.40
2023-08-07T12:06:36.995Z,3.83
2023-08-07T12:09:04.420Z,3.83
2023-08-07T12:11:31.934Z,8.50
2023-08-07T12:14:02.734Z,7.23
2023-08-07T12:16:34.239Z,7.50
2023-08-07T12:19:01.487Z,5.43
2023-08-07T12:21:31.232Z,5.17
2023-08-07T12:24:00.889Z,5.90
2023-08-07T12:26:28.537Z,4.93
2023-08-07T12:28:55.809Z,3.10
2023-08-07T12:31:23.149Z,5.40
2023-08-07T12:33:51.087Z,4.13
2023-08-07T12:36:20.736Z,6.93
2023-08-07T12:38:49.301Z,4.37
2023-08-07T12:43:47.380Z,4.30
2023-08-07T12:48:44.846Z,3.40
2023-08-07T12:51:12.037Z,4.40
2023-08-07T12:53:39.233Z,3.57
2023-08-07T12:56:07.016Z,5.03
2023-08-07T12:58:35.092Z,3.57
2023-08-07T13:01:02.460Z,3.33
2023-08-07T13:03:30.386Z,6.83
2023-08-07T13:05:57.616Z,12.47
2023-08-07T13:08:26.992Z,4.33
2023-08-07T13:10:54.962Z,4.47
2023-08-07T13:13:22.158Z,4.83
2023-08-07T13:15:49.323Z,6.40
2023-08-07T13:18:18.818Z,4.97
2023-08-07T13:20:46.014Z,4.80
2023-08-07T13:23:13.578Z,3.83
2023-08-07T13:25:42.550Z,4.70
2023-08-07T13:28:10.953Z,5.90
2023-08-07T13:30:38.438Z,4.40
2023-08-07T13:33:05.750Z,4.97
2023-08-07T13:35:34.269Z,3.03
2023-08-07T13:38:06.209Z,7.07
2023-08-07T13:40:33.635Z,4.33
2023-08-07T13:43:04.223Z,3.00
2023-08-07T13:45:31.834Z,6.30
2023-08-07T13:47:59.314Z,4.10
2023-08-07T13:50:26.570Z,8.70
2023-08-07T13:53:08.205Z,3.40
2023-08-07T13:55:41.280Z,3.80
2023-08-07T13:58:10.460Z,3.27
2023-08-07T14:00:37.719Z,3.40
2023-08-07T14:05:58.143Z,3.20
2023-08-07T14:08:25.343Z,3.60
2023-08-07T14:10:52.539Z,5.70
2023-08-07T14:13:20.203Z,5.20
2023-08-07T14:15:47.949Z,10.13
2023-08-07T14:18:15.928Z,5.17
2023-08-07T14:21:00.313Z,4.83
2023-08-07T14:23:30.616Z,4.20
2023-08-07T14:25:59.677Z,5.27
2023-08-07T14:28:28.447Z,3.30
2023-08-07T14:31:00.139Z,6.80
2023-08-07T14:33:31.273Z,4.73
2023-08-07T14:35:58.502Z,5.87
2023-08-07T14:38:25.779Z,4.90
2023-08-07T14:40:53.098Z,4.90
2023-08-07T14:43:20.497Z,9.83
2023-08-07T14:45:47.729Z,3.63
2023-08-07T14:48:15.850Z,3.63
2023-08-07T14:50:43.469Z,7.67
2023-08-07T14:53:10.701Z,6.93
2023-08-07T14:55:37.884Z,4.90
2023-08-07T14:58:06.270Z,4.80
2023-08-07T15:00:33.553Z,3.90
2023-08-07T15:03:00.819Z,5.07
2023-08-07T15:05:28.103Z,3.40
2023-08-07T15:07:55.296Z,5.53
2023-08-07T15:10:22.913Z,3.57
2023-08-07T15:12:50.178Z,7.83
2023-08-07T15:15:19.568Z,4.23
2023-08-07T15:17:46.822Z,6.47
2023-08-07T15:20:14.090Z,3.83
2023-08-07T15:22:41.342Z,3.60
2023-08-07T15:25:08.966Z,3.77
2023-08-07T15:27:36.262Z,3.53
2023-08-07T15:30:03.655Z,6.20
2023-08-07T15:32:31.776Z,3.83
2023-08-07T15:34:59.051Z,5.00
2023-08-07T15:37:27.316Z,3.10
2023-08-07T15:39:54.517Z,4.90
2023-08-07T15:42:23.853Z,6.40
2023-08-07T15:44:51.135Z,3.87
2023-08-07T15:47:18.362Z,3.73
2023-08-07T15:49:49.367Z,5.03
2023-08-07T15:52:17.290Z,4.23
2023-08-07T15:54:48.013Z,4.90
2023-08-07T15:57:15.285Z,10.23
2023-08-07T15:59:42.691Z,4.17
2023-08-07T16:02:09.997Z,4.20
2023-08-07T16:04:37.764Z,4.57
2023-08-07T16:07:05.152Z,3.43
2023-08-07T16:09:32.623Z,4.10
2023-08-07T16:11:59.871Z,5.77
2023-08-07T16:14:45.680Z,4.80
2023-08-07T16:17:31.878Z,3.63
2023-08-07T16:19:59.220Z,5.40
2023-08-07T16:22:26.454Z,6.50
2023-08-07T16:25:12.250Z,6.00
2023-08-07T16:28:00.394Z,3.40
2023-08-07T16:30:27.633Z,8.10
2023-08-07T16:32:55.978Z,3.80
2023-08-07T16:35:23.639Z,7.97
2023-08-07T16:37:54.381Z,5.83
2023-08-07T16:40:21.630Z,5.10
2023-08-07T16:42:50.064Z,5.50
2023-08-07T16:45:17.392Z,6.40
2023-08-07T16:47:45.006Z,4.93
2023-08-07T16:50:12.225Z,3.70
2023-08-07T16:52:40.714Z,11.00
2023-08-07T16:55:08.248Z,4.10
2023-08-07T16:57:35.466Z,5.73
2023-08-07T17:00:05.310Z,5.37
2023-08-07T17:02:32.670Z,8.23
2023-08-07T17:05:00.164Z,4.17
2023-08-07T17:07:27.445Z,5.03
2023-08-07T17:09:54.667Z,4.37
2023-08-07T17:12:22.085Z,7.80
2023-08-07T17:14:49.300Z,6.07
2023-08-07T17:17:16.541Z,3.90
2023-08-07T17:19:44.068Z,4.63
2023-08-07T17:22:11.294Z,4.20
2023-08-07T17:24:39.983Z,4.80
2023-08-07T17:27:07.324Z,4.80
2023-08-07T17:29:34.550Z,5.50
2023-08-07T17:32:02.014Z,3.67
2023-08-07T17:34:29.658Z,3.80
2023-08-07T17:36:57.905Z,5.03
2023-08-07T17:39:25.976Z,5.77
2023-08-07T17:41:55.193Z,4.20
2023-08-07T17:44:22.437Z,5.13
2023-08-07T17:46:50.308Z,4.60
2023-08-07T17:49:17.940Z,5.33
2023-08-07T17:51:45.134Z,4.40
2023-08-07T17:54:12.398Z,5.93
2023-08-07T17:56:39.636Z,5.03
2023-08-07T17:59:07.177Z,8.30
2023-08-07T18:01:36.834Z,7.87
2023-08-07T18:04:05.379Z,6.37
2023-08-07T18:06:32.801Z,4.60
2023-08-07T18:09:01.699Z,8.33
2023-08-07T18:11:30.015Z,8.43
2023-08-07T18:13:57.419Z,8.03
2023-08-07T18:16:26.185Z,4.83
2023-08-07T18:18:55.804Z,4.67
2023-08-07T18:21:23.329Z,10.00
2023-08-07T18:23:51.610Z,4.70
2023-08-07T18:26:18.900Z,5.37
2023-08-07T18:28:46.148Z,7.47
2023-08-07T18:31:14.936Z,5.33
2023-08-07T18:33:43.860Z,7.37
2023-08-07T18:36:11.213Z,14.87
2023-08-07T18:38:38.558Z,10.40
2023-08-07T18:41:08.429Z,6.83
2023-08-07T18:43:39.235Z,5.80
2023-08-07T18:46:06.507Z,6.00
2023-08-07T18:48:34.387Z,7.03
2023-08-07T18:51:03.574Z,5.10
2023-08-07T18:53:32.063Z,5.40
2023-08-07T18:55:59.361Z,8.40
2023-08-07T18:58:26.567Z,5.80
2023-08-07T19:00:53.779Z,5.13
2023-08-07T19:03:21.287Z,5.73
2023-08-07T19:05:48.669Z,11.97
2023-08-07T19:08:15.971Z,6.13
2023-08-07T19:10:43.275Z,4.80
2023-08-07T19:13:12.975Z,8.07
2023-08-07T19:15:40.220Z,5.30
2023-08-07T19:18:07.482Z,5.63
2023-08-07T19:20:34.804Z,4.43
2023-08-07T19:23:03.492Z,4.40
2023-08-07T19:25:30.797Z,4.67
2023-08-07T19:27:58.078Z,5.10
2023-08-07T19:30:25.372Z,8.00
2023-08-07T19:32:52.782Z,5.53
2023-08-07T19:35:20.057Z,4.40
2023-08-07T19:37:48.021Z,7.97
2023-08-07T19:40:19.933Z,4.47
2023-08-07T19:42:47.674Z,5.73
2023-08-07T19:45:15.384Z,5.70
2023-08-07T19:47:42.664Z,4.70
2023-08-07T19:50:10.259Z,5.53
2023-08-07T19:52:37.933Z,5.83
2023-08-07T19:55:05.379Z,4.73
2023-08-07T19:57:32.737Z,5.13
2023-08-07T20:00:01.761Z,4.23
2023-08-07T20:02:34.191Z,4.50
2023-08-07T20:05:01.529Z,4.90
2023-08-07T20:07:28.950Z,5.70
2023-08-07T20:09:56.204Z,7.77
2023-08-07T20:12:23.963Z,6.17
2023-08-07T20:14:51.208Z,24.87
2023-08-07T20:17:18.426Z,96.80
2023-08-07T20:19:47.853Z,126.43
2023-08-07T20:22:15.489Z,155.97
2023-08-07T20:24:43.069Z,145.07
2023-08-07T20:27:10.739Z,85.70
2023-08-07T20:29:39.465Z,46.60
2023-08-07T20:32:06.915Z,59.87
2023-08-07T20:34:34.159Z,66.03
2023-08-07T20:37:04.149Z,45.10
2023-08-07T20:39:32.118Z,28.60
2023-08-07T20:41:59.710Z,20.33
2023-08-07T20:44:27.067Z,17.00
2023-08-07T20:46:54.331Z,14.53
2023-08-07T20:49:21.575Z,8.03
2023-08-07T20:51:48.784Z,4.80
2023-08-07T20:54:16.010Z,4.97
2023-08-07T20:56:43.246Z,5.20
2023-08-07T20:59:10.499Z,3.90
2023-08-07T21:01:37.775Z,5.00
2023-08-07T21:04:05.113Z,4.80
2023-08-07T21:06:32.397Z,4.87
2023-08-07T21:08:59.602Z,4.60
2023-08-07T21:11:29.357Z,4.63
2023-08-07T21:13:56.937Z,4.07
2023-08-07T21:16:24.256Z,4.63
2023-08-07T21:18:51.900Z,5.30
2023-08-07T21:21:19.187Z,4.70
2023-08-07T21:23:46.348Z,3.60
2023-08-07T21:26:13.536Z,4.77
2023-08-07T21:28:40.753Z,4.47
2023-08-07T21:31:08.000Z,4.00
2023-08-07T21:33:35.277Z,5.13
2023-08-07T21:36:02.576Z,4.57
2023-08-07T21:38:29.883Z,3.80
2023-08-07T21:40:57.136Z,3.83
2023-08-07T21:43:26.371Z,4.40
2023-08-07T21:45:53.767Z,5.20
2023-08-07T21:48:21.026Z,3.77
2023-08-07T21:50:48.186Z,3.90
2023-08-07T21:53:15.454Z,3.70
2023-08-07T21:55:42.636Z,3.93
2023-08-07T21:58:09.965Z,3.80
2023-08-07T22:00:37.167Z,3.60
2023-08-07T22:03:04.519Z,5.40
2023-08-07T22:05:31.853Z,5.40
2023-08-07T22:08:01.558Z,4.10
2023-08-07T22:10:28.802Z,4.37
2023-08-07T22:12:56.135Z,5.00
2023-08-07T22:15:23.356Z,5.00
2023-08-07T22:17:50.780Z,3.57
2023-08-07T22:20:18.343Z,3.70
2023-08-07T22:22:46.033Z,3.60
2023-08-07T22:25:13.435Z,3.43
2023-08-07T22:27:40.752Z,4.10
2023-08-07T22:30:08.877Z,6.33
2023-08-07T22:32:36.729Z,7.33
2023-08-07T22:35:04.240Z,3.50
2023-08-07T22:37:31.472Z,6.07
2023-08-07T22:39:59.049Z,3.90
2023-08-07T22:42:26.434Z,3.83
2023-08-07T22:44:53.797Z,4.17
2023-08-07T22:47:21.013Z,4.20
2023-08-07T22:49:50.467Z,3.90
2023-08-07T22:52:17.720Z,6.87
2023-08-07T22:54:45.938Z,5.67
2023-08-07T22:57:13.215Z,4.10
2023-08-07T22:59:40.472Z,4.73
2023-08-07T23:02:07.768Z,6.10
2023-08-07T23:04:35.157Z,3.90
2023-08-07T23:07:03.666Z,4.90
2023-08-07T23:09:32.246Z,13.73
2023-08-07T23:12:00.361Z,3.80
2023-08-07T23:14:28.198Z,7.80
2023-08-07T23:16:55.898Z,3.80
2023-08-07T23:19:23.425Z,4.10
2023-08-07T23:21:51.281Z,4.80
2023-08-07T23:24:18.739Z,4.17
2023-08-07T23:26:46.112Z,4.00
2023-08-07T23:29:14.164Z,4.30
2023-08-07T23:31:41.837Z,5.13
2023-08-07T23:34:09.614Z,10.03
2023-08-07T23:36:38.099Z,4.93
2023-08-07T23:39:05.292Z,4.60
2023-08-07T23:41:33.039Z,3.80
2023-08-07T23:44:00.542Z,6.20
2023-08-07T23:46:29.016Z,6.67
2023-08-07T23:48:56.726Z,5.20
2023-08-07T23:51:25.766Z,4.77
2023-08-07T23:53:54.949Z,4.43
2023-08-07T23:56:22.325Z,4.10
2023-08-07T23:58:49.665Z,4.43
